Terminal Aerodrome Forecast
Issued by NWS

Current Version | Previous Version | Text Only | Print | Product List | Glossary Off
Versions: 1 2 3 4 5 6 7 8 9 10 11 12 13 14 15 16 17 18 19 20 21 22 23 24 25 26 27 28

000
FTUS41 KRNK 261130
TAFLWB
TAF
KLWB 261130Z 2612/2712 VRB04KT 6SM HZ VCSH SCT025 BKN070 OVC110
     FM261500 29007KT P6SM VCTS SCT030 BKN040CB OVC150
      TEMPO 2619/2623 3SM TSRA BKN025CB
     FM270000 20003KT P6SM BKN050 OVC250
     FM270600 00000KT 4SM -RA SCT015 OVC040=

USA.gov is the U.S. government's official web portal to all federal, state and local government web resources and services.